Pouce Coupe, Canada
Current Conditions -  °F | °C
As of 1:00 PM on Saturday 20 Dec 2014 (Local Time) from CYDQ Reporting Station
Clear Clear  
Wind Chill:   Ceiling: Unl
Heat Index: 14°   Visibility: 9mi
Dew Point: 12°   Wind: 6mph
Humidity: 93%   Direction: 50°NE
Pressure: 29.39"   Gusts: NA
Location:  55.72°N, 120.13°W
Report Text: CYDQ 202000Z AUTO 05005KT 9SM CLR M10/M11 A2939 RMK SLP003
Loading
Personal Weather Stations






























Interactive Weather Map New forecast layout! Learn more

10-Day Weather Forecast

Advertisements
Track Severe Weather on mobile